sensor_id;sensor_type;location;lat;lon;timestamp;pressure;altitude;pressure_sealevel;temperature;humidity
12781;BME280;6454;43.304;24.344;2022-10-31T00:01:36;100669.78;;;16.52;56.89
12781;BME280;6454;43.304;24.344;2022-10-31T00:04:05;100562.66;;;15.79;56.57
12781;BME280;6454;43.304;24.344;2022-10-31T00:06:32;100673.88;;;16.41;56.89
12781;BME280;6454;43.304;24.344;2022-10-31T00:09:02;100673.25;;;16.22;57.71
12781;BME280;6454;43.304;24.344;2022-10-31T00:11:29;100671.06;;;16.10;58.33
12781;BME280;6454;43.304;24.344;2022-10-31T00:13:57;100659.94;;;16.07;58.28
12781;BME280;6454;43.304;24.344;2022-10-31T00:16:24;100670.41;;;16.05;58.44
12781;BME280;6454;43.304;24.344;2022-10-31T00:18:52;100643.94;;;16.00;58.09
12781;BME280;6454;43.304;24.344;2022-10-31T00:21:22;100672.06;;;16.15;58.07
12781;BME280;6454;43.304;24.344;2022-10-31T00:23:49;100674.44;;;16.30;57.65
12781;BME280;6454;43.304;24.344;2022-10-31T00:26:17;100671.25;;;16.36;57.13
12781;BME280;6454;43.304;24.344;2022-10-31T00:28:44;100678.97;;;16.34;57.94
12781;BME280;6454;43.304;24.344;2022-10-31T00:31:12;100684.59;;;16.29;58.27
12781;BME280;6454;43.304;24.344;2022-10-31T00:33:40;100682.94;;;16.28;57.97
12781;BME280;6454;43.304;24.344;2022-10-31T00:36:10;100690.19;;;16.24;58.18
12781;BME280;6454;43.304;24.344;2022-10-31T00:38:38;100694.78;;;16.15;58.31
12781;BME280;6454;43.304;24.344;2022-10-31T00:41:05;100698.03;;;16.17;58.56
12781;BME280;6454;43.304;24.344;2022-10-31T00:43:32;100698.97;;;16.13;58.91
12781;BME280;6454;43.304;24.344;2022-10-31T00:45:59;100698.25;;;16.07;58.62
12781;BME280;6454;43.304;24.344;2022-10-31T00:48:26;100695.66;;;16.02;59.03
12781;BME280;6454;43.304;24.344;2022-10-31T00:50:53;100689.78;;;15.95;59.96
12781;BME280;6454;43.304;24.344;2022-10-31T00:53:20;100686.25;;;15.94;60.80
12781;BME280;6454;43.304;24.344;2022-10-31T00:55:48;100691.63;;;15.86;60.87
12781;BME280;6454;43.304;24.344;2022-10-31T00:58:15;100683.97;;;15.74;60.59
12781;BME280;6454;43.304;24.344;2022-10-31T01:00:42;100687.41;;;15.66;61.41
12781;BME280;6454;43.304;24.344;2022-10-31T01:03:09;100691.56;;;15.64;61.69
12781;BME280;6454;43.304;24.344;2022-10-31T01:05:36;100696.53;;;15.62;61.64
12781;BME280;6454;43.304;24.344;2022-10-31T01:08:02;100690.47;;;15.65;62.29
12781;BME280;6454;43.304;24.344;2022-10-31T01:10:29;100689.53;;;15.69;63.00
12781;BME280;6454;43.304;24.344;2022-10-31T01:12:57;100689.44;;;15.61;63.49
12781;BME280;6454;43.304;24.344;2022-10-31T01:15:24;100697.75;;;15.56;63.80
12781;BME280;6454;43.304;24.344;2022-10-31T01:17:51;100699.38;;;15.43;63.64
12781;BME280;6454;43.304;24.344;2022-10-31T01:20:18;100663.16;;;15.10;63.98
12781;BME280;6454;43.304;24.344;2022-10-31T01:22:45;100698.06;;;15.27;63.92
12781;BME280;6454;43.304;24.344;2022-10-31T01:25:12;100656.34;;;14.94;64.22
12781;BME280;6454;43.304;24.344;2022-10-31T01:27:39;100702.63;;;15.31;64.13
12781;BME280;6454;43.304;24.344;2022-10-31T01:30:08;100693.31;;;15.32;64.25
12781;BME280;6454;43.304;24.344;2022-10-31T01:32:35;100684.81;;;15.20;64.34
12781;BME280;6454;43.304;24.344;2022-10-31T01:35:02;100698.47;;;15.20;64.92
12781;BME280;6454;43.304;24.344;2022-10-31T01:37:30;100702.63;;;15.18;65.17
12781;BME280;6454;43.304;24.344;2022-10-31T01:39:57;100701.59;;;15.14;65.57
12781;BME280;6454;43.304;24.344;2022-10-31T01:42:24;100690.88;;;15.17;65.73
12781;BME280;6454;43.304;24.344;2022-10-31T01:44:54;100694.72;;;15.16;66.00
12781;BME280;6454;43.304;24.344;2022-10-31T01:47:29;100688.75;;;15.14;65.95
12781;BME280;6454;43.304;24.344;2022-10-31T01:49:59;100633.66;;;14.66;66.55
12781;BME280;6454;43.304;24.344;2022-10-31T01:52:31;100698.97;;;14.95;66.48
12781;BME280;6454;43.304;24.344;2022-10-31T01:55:01;100700.38;;;14.93;67.02
12781;BME280;6454;43.304;24.344;2022-10-31T01:57:30;100689.75;;;14.91;67.13
12781;BME280;6454;43.304;24.344;2022-10-31T02:00:02;100698.78;;;15.05;67.31
12781;BME280;6454;43.304;24.344;2022-10-31T02:02:31;100690.03;;;15.03;67.42
12781;BME280;6454;43.304;24.344;2022-10-31T02:05:00;100693.28;;;14.92;67.56
12781;BME280;6454;43.304;24.344;2022-10-31T02:07:33;100697.03;;;14.82;67.94
12781;BME280;6454;43.304;24.344;2022-10-31T02:10:03;100699.84;;;14.77;67.98
12781;BME280;6454;43.304;24.344;2022-10-31T02:12:31;100711.94;;;14.71;68.11
12781;BME280;6454;43.304;24.344;2022-10-31T02:14:59;100707.03;;;14.73;68.22
12781;BME280;6454;43.304;24.344;2022-10-31T02:17:26;100583.81;;;13.83;68.01
12781;BME280;6454;43.304;24.344;2022-10-31T02:19:58;100672.66;;;14.40;68.48
12781;BME280;6454;43.304;24.344;2022-10-31T02:22:32;100714.16;;;14.55;69.01
12781;BME280;6454;43.304;24.344;2022-10-31T02:25:18;100720.03;;;14.62;68.70
12781;BME280;6454;43.304;24.344;2022-10-31T02:28:03;100721.06;;;14.66;68.87
12781;BME280;6454;43.304;24.344;2022-10-31T02:30:38;100722.44;;;14.50;68.87
12781;BME280;6454;43.304;24.344;2022-10-31T02:33:17;100716.25;;;14.45;69.14
12781;BME280;6454;43.304;24.344;2022-10-31T02:35:53;100663.16;;;14.00;69.12
12781;BME280;6454;43.304;24.344;2022-10-31T02:38:29;100726.81;;;14.33;69.17
12781;BME280;6454;43.304;24.344;2022-10-31T02:41:05;100720.28;;;14.29;69.14
12781;BME280;6454;43.304;24.344;2022-10-31T02:43:42;100723.47;;;14.17;69.23
12781;BME280;6454;43.304;24.344;2022-10-31T02:46:14;100727.44;;;14.25;69.67
12781;BME280;6454;43.304;24.344;2022-10-31T02:48:48;100726.94;;;14.23;69.45
12781;BME280;6454;43.304;24.344;2022-10-31T02:51:17;100702.25;;;13.95;69.25
12781;BME280;6454;43.304;24.344;2022-10-31T02:53:44;100730.56;;;13.99;70.19
12781;BME280;6454;43.304;24.344;2022-10-31T02:56:14;100680.56;;;13.48;70.23
12781;BME280;6454;43.304;24.344;2022-10-31T02:58:48;100733.56;;;13.79;70.39
12781;BME280;6454;43.304;24.344;2022-10-31T03:04:19;100738.38;;;13.64;70.98
12781;BME280;6454;43.304;24.344;2022-10-31T03:06:54;100740.59;;;13.62;70.69
12781;BME280;6454;43.304;24.344;2022-10-31T03:09:25;100747.50;;;13.54;71.16
12781;BME280;6454;43.304;24.344;2022-10-31T03:11:58;100751.41;;;13.48;71.18
12781;BME280;6454;43.304;24.344;2022-10-31T03:14:31;100749.09;;;13.36;71.94
12781;BME280;6454;43.304;24.344;2022-10-31T03:17:05;100751.88;;;13.31;72.13
12781;BME280;6454;43.304;24.344;2022-10-31T03:19:40;100746.25;;;13.23;72.28
12781;BME280;6454;43.304;24.344;2022-10-31T03:22:15;100713.00;;;12.97;72.44
12781;BME280;6454;43.304;24.344;2022-10-31T03:24:43;100756.69;;;13.16;72.08
12781;BME280;6454;43.304;24.344;2022-10-31T03:27:13;100753.16;;;13.15;72.13
12781;BME280;6454;43.304;24.344;2022-10-31T03:29:43;100746.19;;;12.99;72.01
12781;BME280;6454;43.304;24.344;2022-10-31T03:32:15;100742.19;;;12.91;72.41
12781;BME280;6454;43.304;24.344;2022-10-31T03:34:46;100698.22;;;12.51;72.79
12781;BME280;6454;43.304;24.344;2022-10-31T03:37:16;100744.00;;;12.72;72.84
12781;BME280;6454;43.304;24.344;2022-10-31T03:39:45;100720.81;;;12.51;72.36
12781;BME280;6454;43.304;24.344;2022-10-31T03:42:15;100745.81;;;12.53;72.66
12781;BME280;6454;43.304;24.344;2022-10-31T03:44:45;100753.50;;;12.46;72.34
12781;BME280;6454;43.304;24.344;2022-10-31T03:47:13;100751.81;;;12.50;72.42
12781;BME280;6454;43.304;24.344;2022-10-31T03:49:40;100749.09;;;12.50;72.21
12781;BME280;6454;43.304;24.344;2022-10-31T03:52:15;100745.97;;;12.33;73.01
12781;BME280;6454;43.304;24.344;2022-10-31T03:54:46;100755.81;;;12.24;73.29
12781;BME280;6454;43.304;24.344;2022-10-31T03:57:19;100754.28;;;12.08;73.23
12781;BME280;6454;43.304;24.344;2022-10-31T03:59:53;100759.44;;;12.09;73.51
12781;BME280;6454;43.304;24.344;2022-10-31T04:02:25;100751.06;;;12.06;72.70
12781;BME280;6454;43.304;24.344;2022-10-31T04:04:56;100751.63;;;11.98;72.53
12781;BME280;6454;43.304;24.344;2022-10-31T04:07:28;100752.16;;;12.00;72.38
12781;BME280;6454;43.304;24.344;2022-10-31T04:09:57;100766.66;;;11.85;72.63
12781;BME280;6454;43.304;24.344;2022-10-31T04:12:26;100762.31;;;11.79;72.81
12781;BME280;6454;43.304;24.344;2022-10-31T04:14:54;100765.63;;;11.76;73.46
12781;BME280;6454;43.304;24.344;2022-10-31T04:17:23;100758.84;;;11.74;73.28
12781;BME280;6454;43.304;24.344;2022-10-31T04:19:50;100757.50;;;11.71;73.07
12781;BME280;6454;43.304;24.344;2022-10-31T04:22:17;100757.19;;;11.68;73.13
12781;BME280;6454;43.304;24.344;2022-10-31T04:24:45;100765.38;;;11.62;73.35
12781;BME280;6454;43.304;24.344;2022-10-31T04:27:11;100766.19;;;11.63;72.89
12781;BME280;6454;43.304;24.344;2022-10-31T04:29:38;100767.25;;;11.67;72.32
12781;BME280;6454;43.304;24.344;2022-10-31T04:32:05;100774.66;;;11.56;72.36
12781;BME280;6454;43.304;24.344;2022-10-31T04:34:32;100769.78;;;11.48;73.22
12781;BME280;6454;43.304;24.344;2022-10-31T04:36:59;100769.00;;;11.38;73.17
12781;BME280;6454;43.304;24.344;2022-10-31T04:39:25;100772.81;;;11.32;73.02
12781;BME280;6454;43.304;24.344;2022-10-31T04:41:53;100779.06;;;11.32;73.18
12781;BME280;6454;43.304;24.344;2022-10-31T04:44:20;100782.59;;;11.28;73.31
12781;BME280;6454;43.304;24.344;2022-10-31T04:46:47;100783.94;;;11.30;73.47
12781;BME280;6454;43.304;24.344;2022-10-31T04:49:14;100782.06;;;11.31;73.38
12781;BME280;6454;43.304;24.344;2022-10-31T04:51:41;100786.66;;;11.30;72.81
12781;BME280;6454;43.304;24.344;2022-10-31T04:54:08;100788.84;;;11.28;73.10
12781;BME280;6454;43.304;24.344;2022-10-31T04:56:34;100788.88;;;11.23;73.69
12781;BME280;6454;43.304;24.344;2022-10-31T04:59:03;100758.22;;;10.92;73.40
12781;BME280;6454;43.304;24.344;2022-10-31T05:01:29;100803.28;;;11.14;73.54
12781;BME280;6454;43.304;24.344;2022-10-31T05:03:56;100798.38;;;11.11;73.71
12781;BME280;6454;43.304;24.344;2022-10-31T05:06:23;100799.47;;;11.15;73.83
12781;BME280;6454;43.304;24.344;2022-10-31T05:08:50;100798.94;;;11.08;73.82
12781;BME280;6454;43.304;24.344;2022-10-31T05:11:17;100803.56;;;10.92;74.19
12781;BME280;6454;43.304;24.344;2022-10-31T05:13:44;100807.63;;;10.89;74.30
12781;BME280;6454;43.304;24.344;2022-10-31T05:16:12;100801.41;;;10.84;74.27
12781;BME280;6454;43.304;24.344;2022-10-31T05:18:39;100800.06;;;10.86;74.21
12781;BME280;6454;43.304;24.344;2022-10-31T05:21:06;100807.91;;;10.88;74.00
12781;BME280;6454;43.304;24.344;2022-10-31T05:23:33;100812.53;;;10.92;74.25
12781;BME280;6454;43.304;24.344;2022-10-31T05:25:59;100807.63;;;10.89;74.04
12781;BME280;6454;43.304;24.344;2022-10-31T05:28:26;100812.53;;;10.92;74.56
12781;BME280;6454;43.304;24.344;2022-10-31T05:30:53;100816.06;;;10.88;75.16
12781;BME280;6454;43.304;24.344;2022-10-31T05:33:21;100822.31;;;10.88;75.67
12781;BME280;6454;43.304;24.344;2022-10-31T05:35:48;100826.91;;;10.93;75.66
12781;BME280;6454;43.304;24.344;2022-10-31T05:38:15;100828.25;;;11.00;75.64
12781;BME280;6454;43.304;24.344;2022-10-31T05:40:41;100829.63;;;11.08;75.26
12781;BME280;6454;43.304;24.344;2022-10-31T05:43:08;100826.91;;;11.13;75.43
12781;BME280;6454;43.304;24.344;2022-10-31T05:45:35;100833.97;;;11.14;75.51
12781;BME280;6454;43.304;24.344;2022-10-31T05:48:02;100837.75;;;11.13;75.17
12781;BME280;6454;43.304;24.344;2022-10-31T05:50:31;100845.91;;;11.13;75.32
12781;BME280;6454;43.304;24.344;2022-10-31T05:53:00;100850.25;;;11.14;75.78
12781;BME280;6454;43.304;24.344;2022-10-31T05:55:28;100855.69;;;11.24;75.61
12781;BME280;6454;43.304;24.344;2022-10-31T05:57:56;100852.13;;;11.34;75.36
12781;BME280;6454;43.304;24.344;2022-10-31T06:00:24;100855.38;;;11.46;75.37
12781;BME280;6454;43.304;24.344;2022-10-31T06:02:58;100852.34;;;11.57;75.72
12781;BME280;6454;43.304;24.344;2022-10-31T06:05:25;100855.56;;;11.64;76.02
12781;BME280;6454;43.304;24.344;2022-10-31T06:07:53;100866.47;;;11.70;75.80
12781;BME280;6454;43.304;24.344;2022-10-31T06:10:20;100865.63;;;11.79;75.56
12781;BME280;6454;43.304;24.344;2022-10-31T06:12:47;100859.59;;;11.92;75.57
12781;BME280;6454;43.304;24.344;2022-10-31T06:15:15;100864.75;;;12.04;75.08
12781;BME280;6454;43.304;24.344;2022-10-31T06:17:42;100865.44;;;12.19;75.86
12781;BME280;6454;43.304;24.344;2022-10-31T06:20:10;100859.66;;;12.41;76.12
12781;BME280;6454;43.304;24.344;2022-10-31T06:22:36;100855.72;;;12.57;75.54
12781;BME280;6454;43.304;24.344;2022-10-31T06:25:05;100861.06;;;12.72;75.08
12781;BME280;6454;43.304;24.344;2022-10-31T06:27:32;100850.06;;;12.87;75.20
12781;BME280;6454;43.304;24.344;2022-10-31T06:29:59;100830.41;;;12.96;74.91
12781;BME280;6454;43.304;24.344;2022-10-31T06:32:26;100848.66;;;13.24;74.16
12781;BME280;6454;43.304;24.344;2022-10-31T06:34:52;100856.13;;;13.42;73.81
12781;BME280;6454;43.304;24.344;2022-10-31T06:37:19;100866.59;;;13.59;73.56
12781;BME280;6454;43.304;24.344;2022-10-31T06:39:46;100861.50;;;13.76;72.72
12781;BME280;6454;43.304;24.344;2022-10-31T06:42:16;100803.66;;;13.55;72.18
12781;BME280;6454;43.304;24.344;2022-10-31T06:44:43;100872.06;;;14.06;71.83
12781;BME280;6454;43.304;24.344;2022-10-31T06:47:10;100872.72;;;14.16;71.03
12781;BME280;6454;43.304;24.344;2022-10-31T06:49:36;100864.13;;;14.28;70.85
12781;BME280;6454;43.304;24.344;2022-10-31T06:52:04;100840.97;;;14.26;70.27
12781;BME280;6454;43.304;24.344;2022-10-31T06:54:31;100864.75;;;14.62;69.75
12781;BME280;6454;43.304;24.344;2022-10-31T06:56:58;100862.31;;;14.79;68.70
12781;BME280;6454;43.304;24.344;2022-10-31T06:59:26;100875.72;;;14.95;68.27
12781;BME280;6454;43.304;24.344;2022-10-31T07:01:53;100873.13;;;15.03;67.98
12781;BME280;6454;43.304;24.344;2022-10-31T07:04:20;100869.63;;;15.16;67.56
12781;BME280;6454;43.304;24.344;2022-10-31T07:06:50;100856.09;;;15.25;66.88
12781;BME280;6454;43.304;24.344;2022-10-31T07:09:17;100859.47;;;15.35;66.69
12781;BME280;6454;43.304;24.344;2022-10-31T07:11:43;100864.16;;;15.48;66.74
12781;BME280;6454;43.304;24.344;2022-10-31T07:14:10;100866.81;;;15.67;65.99
12781;BME280;6454;43.304;24.344;2022-10-31T07:16:38;100870.78;;;15.88;65.79
12781;BME280;6454;43.304;24.344;2022-10-31T07:19:05;100873.09;;;16.08;65.18
12781;BME280;6454;43.304;24.344;2022-10-31T07:21:32;100866.00;;;16.21;65.07
12781;BME280;6454;43.304;24.344;2022-10-31T07:23:59;100861.38;;;16.44;64.33
12781;BME280;6454;43.304;24.344;2022-10-31T07:26:26;100853.69;;;16.59;63.73
12781;BME280;6454;43.304;24.344;2022-10-31T07:28:53;100851.81;;;16.68;63.23
12781;BME280;6454;43.304;24.344;2022-10-31T07:31:20;100857.41;;;16.86;62.17
12781;BME280;6454;43.304;24.344;2022-10-31T07:33:48;100858.31;;;16.95;63.00
12781;BME280;6454;43.304;24.344;2022-10-31T07:36:15;100854.69;;;17.08;61.99
12781;BME280;6454;43.304;24.344;2022-10-31T07:38:41;100854.81;;;17.25;61.06
12781;BME280;6454;43.304;24.344;2022-10-31T07:41:08;100855.19;;;17.32;61.04
12781;BME280;6454;43.304;24.344;2022-10-31T07:43:35;100853.63;;;17.48;60.38
12781;BME280;6454;43.304;24.344;2022-10-31T07:46:02;100854.69;;;17.61;59.47
12781;BME280;6454;43.304;24.344;2022-10-31T07:48:28;100852.16;;;17.73;59.71
12781;BME280;6454;43.304;24.344;2022-10-31T07:50:57;100785.47;;;17.33;59.08
12781;BME280;6454;43.304;24.344;2022-10-31T07:53:23;100860.28;;;17.86;59.11
12781;BME280;6454;43.304;24.344;2022-10-31T07:55:50;100865.78;;;17.86;58.58
12781;BME280;6454;43.304;24.344;2022-10-31T07:58:17;100859.66;;;17.89;58.77
12781;BME280;6454;43.304;24.344;2022-10-31T08:00:45;100852.25;;;17.98;57.58
12781;BME280;6454;43.304;24.344;2022-10-31T08:03:14;100858.28;;;18.18;57.94
12781;BME280;6454;43.304;24.344;2022-10-31T08:05:41;100854.75;;;18.26;57.60
12781;BME280;6454;43.304;24.344;2022-10-31T08:08:13;100852.31;;;18.33;57.11
12781;BME280;6454;43.304;24.344;2022-10-31T08:10:40;100850.56;;;18.45;56.80
12781;BME280;6454;43.304;24.344;2022-10-31T08:13:08;100851.72;;;18.53;56.63
12781;BME280;6454;43.304;24.344;2022-10-31T08:15:36;100861.44;;;18.59;56.43
12781;BME280;6454;43.304;24.344;2022-10-31T08:18:05;100854.66;;;18.65;55.71
12781;BME280;6454;43.304;24.344;2022-10-31T08:20:32;100858.88;;;18.71;55.21
12781;BME280;6454;43.304;24.344;2022-10-31T08:23:00;100852.72;;;18.74;55.69
12781;BME280;6454;43.304;24.344;2022-10-31T08:25:31;100854.31;;;18.75;55.32
12781;BME280;6454;43.304;24.344;2022-10-31T08:27:58;100800.84;;;18.47;54.77
12781;BME280;6454;43.304;24.344;2022-10-31T08:30:27;100851.72;;;18.96;54.37
12781;BME280;6454;43.304;24.344;2022-10-31T08:33:01;100848.19;;;19.04;54.49
12781;BME280;6454;43.304;24.344;2022-10-31T08:35:29;100815.22;;;18.87;54.26
12781;BME280;6454;43.304;24.344;2022-10-31T08:37:56;100858.97;;;19.26;53.74
12781;BME280;6454;43.304;24.344;2022-10-31T08:40:24;100845.53;;;19.42;52.50
12781;BME280;6454;43.304;24.344;2022-10-31T08:43:03;100851.97;;;19.46;53.32
12781;BME280;6454;43.304;24.344;2022-10-31T08:45:32;100847.59;;;19.53;53.17
12781;BME280;6454;43.304;24.344;2022-10-31T08:47:59;100851.28;;;19.66;52.87
12781;BME280;6454;43.304;24.344;2022-10-31T08:50:27;100846.88;;;19.73;52.69
12781;BME280;6454;43.304;24.344;2022-10-31T08:52:58;100859.25;;;19.88;51.82
12781;BME280;6454;43.304;24.344;2022-10-31T08:55:25;100854.69;;;19.92;52.03
12781;BME280;6454;43.304;24.344;2022-10-31T08:57:54;100861.19;;;19.96;51.37
12781;BME280;6454;43.304;24.344;2022-10-31T09:00:23;100857.59;;;20.04;51.27
12781;BME280;6454;43.304;24.344;2022-10-31T09:02:55;100855.09;;;20.11;51.19
12781;BME280;6454;43.304;24.344;2022-10-31T09:05:22;100862.66;;;20.23;51.20
12781;BME280;6454;43.304;24.344;2022-10-31T09:07:49;100861.00;;;20.30;50.79
12781;BME280;6454;43.304;24.344;2022-10-31T09:10:16;100857.25;;;20.35;50.90
12781;BME280;6454;43.304;24.344;2022-10-31T09:12:43;100852.97;;;20.46;49.84
12781;BME280;6454;43.304;24.344;2022-10-31T09:15:09;100851.47;;;20.48;49.97
12781;BME280;6454;43.304;24.344;2022-10-31T09:17:38;100848.66;;;20.57;50.14
12781;BME280;6454;43.304;24.344;2022-10-31T09:20:05;100859.16;;;20.64;49.12
12781;BME280;6454;43.304;24.344;2022-10-31T09:22:32;100850.41;;;20.62;49.53
12781;BME280;6454;43.304;24.344;2022-10-31T09:24:58;100846.75;;;20.70;49.53
12781;BME280;6454;43.304;24.344;2022-10-31T09:27:25;100851.75;;;20.76;49.61
12781;BME280;6454;43.304;24.344;2022-10-31T09:29:52;100841.91;;;20.87;49.30
12781;BME280;6454;43.304;24.344;2022-10-31T09:32:19;100851.47;;;20.90;48.74
12781;BME280;6454;43.304;24.344;2022-10-31T09:34:47;100846.91;;;20.94;49.18
12781;BME280;6454;43.304;24.344;2022-10-31T09:37:14;100843.66;;;20.92;49.16
12781;BME280;6454;43.304;24.344;2022-10-31T09:39:41;100838.41;;;20.99;48.91
12781;BME280;6454;43.304;24.344;2022-10-31T09:42:35;100831.69;;;21.08;48.90
12781;BME280;6454;43.304;24.344;2022-10-31T09:45:10;100833.22;;;21.18;48.80
12781;BME280;6454;43.304;24.344;2022-10-31T09:47:48;100831.28;;;21.31;48.28
12781;BME280;6454;43.304;24.344;2022-10-31T09:50:21;100825.41;;;21.32;48.33
12781;BME280;6454;43.304;24.344;2022-10-31T09:52:58;100829.56;;;21.38;47.99
12781;BME280;6454;43.304;24.344;2022-10-31T09:55:31;100833.47;;;21.37;47.79
12781;BME280;6454;43.304;24.344;2022-10-31T09:58:01;100755.38;;;20.92;47.67
12781;BME280;6454;43.304;24.344;2022-10-31T10:00:29;100816.94;;;21.49;47.52
12781;BME280;6454;43.304;24.344;2022-10-31T10:03:01;100812.69;;;21.52;47.46
12781;BME280;6454;43.304;24.344;2022-10-31T10:05:34;100677.44;;;20.71;46.78
12781;BME280;6454;43.304;24.344;2022-10-31T10:08:10;100816.84;;;21.70;46.92
12781;BME280;6454;43.304;24.344;2022-10-31T10:10:50;100817.44;;;21.75;46.45
12781;BME280;6454;43.304;24.344;2022-10-31T10:13:34;100809.59;;;21.77;46.59
12781;BME280;6454;43.304;24.344;2022-10-31T10:16:30;100803.47;;;21.84;46.23
12781;BME280;6454;43.304;24.344;2022-10-31T10:19:09;100808.56;;;21.94;46.32
12781;BME280;6454;43.304;24.344;2022-10-31T10:21:48;100800.66;;;21.93;46.22
12781;BME280;6454;43.304;24.344;2022-10-31T10:24:33;100811.59;;;22.01;46.30
12781;BME280;6454;43.304;24.344;2022-10-31T10:27:14;100741.59;;;21.73;45.94
12781;BME280;6454;43.304;24.344;2022-10-31T10:29:46;100805.00;;;22.18;45.52
12781;BME280;6454;43.304;24.344;2022-10-31T10:32:18;100803.13;;;22.22;45.23
12781;BME280;6454;43.304;24.344;2022-10-31T10:34:50;100797.72;;;22.25;45.13
12781;BME280;6454;43.304;24.344;2022-10-31T10:37:25;100795.16;;;22.32;45.04
12781;BME280;6454;43.304;24.344;2022-10-31T10:42:25;100787.06;;;22.39;45.32
12781;BME280;6454;43.304;24.344;2022-10-31T10:45:15;100790.63;;;22.52;44.54
12781;BME280;6454;43.304;24.344;2022-10-31T10:48:06;100789.47;;;22.53;44.53
12781;BME280;6454;43.304;24.344;2022-10-31T10:50:39;100789.91;;;22.55;44.62
12781;BME280;6454;43.304;24.344;2022-10-31T10:53:18;100777.44;;;22.61;44.43
12781;BME280;6454;43.304;24.344;2022-10-31T10:56:03;100763.16;;;22.59;43.84
12781;BME280;6454;43.304;24.344;2022-10-31T10:58:33;100780.22;;;22.73;44.29
12781;BME280;6454;43.304;24.344;2022-10-31T11:01:10;100772.84;;;22.93;44.15
12781;BME280;6454;43.304;24.344;2022-10-31T11:03:38;100778.38;;;23.08;43.54
12781;BME280;6454;43.304;24.344;2022-10-31T11:06:16;100776.53;;;23.13;43.55
12781;BME280;6454;43.304;24.344;2022-10-31T11:08:47;100771.19;;;23.20;42.87
12781;BME280;6454;43.304;24.344;2022-10-31T11:11:23;100768.84;;;23.22;43.06
12781;BME280;6454;43.304;24.344;2022-10-31T11:13:56;100769.78;;;23.26;42.76
12781;BME280;6454;43.304;24.344;2022-10-31T11:16:30;100768.25;;;23.28;42.66
12781;BME280;6454;43.304;24.344;2022-10-31T11:19:08;100761.91;;;23.28;42.87
12781;BME280;6454;43.304;24.344;2022-10-31T11:21:40;100756.44;;;23.31;42.15
12781;BME280;6454;43.304;24.344;2022-10-31T11:24:14;100754.41;;;23.28;42.65
12781;BME280;6454;43.304;24.344;2022-10-31T11:26:42;100668.66;;;22.69;42.31
12781;BME280;6454;43.304;24.344;2022-10-31T11:29:15;100752.72;;;23.39;41.55
12781;BME280;6454;43.304;24.344;2022-10-31T11:31:43;100760.59;;;23.37;41.98
12781;BME280;6454;43.304;24.344;2022-10-31T11:34:18;100726.78;;;23.16;41.80
12781;BME280;6454;43.304;24.344;2022-10-31T11:36:46;100746.03;;;23.40;41.76
12781;BME280;6454;43.304;24.344;2022-10-31T11:39:18;100745.22;;;23.40;41.90
12781;BME280;6454;43.304;24.344;2022-10-31T11:41:47;100747.72;;;23.45;41.56
12781;BME280;6454;43.304;24.344;2022-10-31T11:44:17;100735.84;;;23.60;41.07
12781;BME280;6454;43.304;24.344;2022-10-31T11:46:47;100718.25;;;23.52;40.96
12781;BME280;6454;43.304;24.344;2022-10-31T11:49:17;100720.91;;;23.49;40.95
12781;BME280;6454;43.304;24.344;2022-10-31T11:51:48;100734.66;;;23.61;41.32
12781;BME280;6454;43.304;24.344;2022-10-31T11:54:22;100737.97;;;23.66;41.17
12781;BME280;6454;43.304;24.344;2022-10-31T11:56:51;100736.38;;;23.65;41.50
12781;BME280;6454;43.304;24.344;2022-10-31T11:59:22;100736.09;;;23.70;41.16
12781;BME280;6454;43.304;24.344;2022-10-31T12:01:51;100732.50;;;23.70;41.01
12781;BME280;6454;43.304;24.344;2022-10-31T12:04:27;100728.13;;;23.69;41.03
12781;BME280;6454;43.304;24.344;2022-10-31T12:06:55;100729.81;;;23.73;40.77
12781;BME280;6454;43.304;24.344;2022-10-31T12:09:27;100731.81;;;23.73;41.38
12781;BME280;6454;43.304;24.344;2022-10-31T12:12:21;100731.34;;;23.71;41.25
12781;BME280;6454;43.304;24.344;2022-10-31T12:15:00;100727.84;;;23.74;40.93
12781;BME280;6454;43.304;24.344;2022-10-31T12:17:36;100730.19;;;23.72;40.93
12781;BME280;6454;43.304;24.344;2022-10-31T12:20:16;100731.53;;;23.78;41.03
12781;BME280;6454;43.304;24.344;2022-10-31T12:22:52;100722.47;;;23.81;40.61
12781;BME280;6454;43.304;24.344;2022-10-31T12:25:33;100726.03;;;23.82;40.68
12781;BME280;6454;43.304;24.344;2022-10-31T12:28:12;100681.88;;;23.54;40.14
12781;BME280;6454;43.304;24.344;2022-10-31T12:30:54;100726.41;;;23.80;40.56
12781;BME280;6454;43.304;24.344;2022-10-31T12:33:37;100721.88;;;23.72;40.35
12781;BME280;6454;43.304;24.344;2022-10-31T12:36:19;100725.78;;;23.71;40.75
12781;BME280;6454;43.304;24.344;2022-10-31T12:41:49;100725.34;;;23.69;40.87
12781;BME280;6454;43.304;24.344;2022-10-31T12:44:31;100730.56;;;23.70;40.74
12781;BME280;6454;43.304;24.344;2022-10-31T12:47:20;100720.72;;;23.73;40.69
12781;BME280;6454;43.304;24.344;2022-10-31T12:49:58;100718.81;;;23.77;41.21
12781;BME280;6454;43.304;24.344;2022-10-31T12:52:40;100720.50;;;23.82;40.69
12781;BME280;6454;43.304;24.344;2022-10-31T12:55:21;100723.28;;;23.82;41.06
12781;BME280;6454;43.304;24.344;2022-10-31T12:57:57;100722.47;;;23.81;40.87
12781;BME280;6454;43.304;24.344;2022-10-31T13:00:28;100716.13;;;23.81;40.94
12781;BME280;6454;43.304;24.344;2022-10-31T13:03:02;100723.66;;;23.80;40.55
12781;BME280;6454;43.304;24.344;2022-10-31T13:05:39;100719.97;;;23.76;40.76
12781;BME280;6454;43.304;24.344;2022-10-31T13:08:10;100695.28;;;23.52;40.76
12781;BME280;6454;43.304;24.344;2022-10-31T13:10:42;100719.91;;;23.73;40.78
12781;BME280;6454;43.304;24.344;2022-10-31T13:13:14;100726.69;;;23.75;40.93
12781;BME280;6454;43.304;24.344;2022-10-31T13:15:48;100733.09;;;23.79;40.93